TimeMST,TemperatureF,Dew PointF,Humidity,Sea Level PressureIn,VisibilityMPH,Wind Direction,Wind SpeedMPH,Gust SpeedMPH,PrecipitationIn,Events,Conditions,WindDirDegrees,DateUTC
12:56 AM,34.0,30.9,89,30.35,10.0,ESE,5.8,-,N/A,,Overcast,120,2013-12-02 07:56:00
1:56 AM,34.0,30.9,89,30.34,10.0,East,3.5,-,N/A,,Overcast,100,2013-12-02 08:56:00
2:56 AM,34.0,30.9,89,30.34,10.0,Calm,Calm,-,N/A,,Overcast,0,2013-12-02 09:56:00
3:56 AM,33.1,30.9,92,30.31,10.0,Calm,Calm,-,N/A,,Overcast,0,2013-12-02 10:56:00
4:56 AM,33.1,30.9,92,30.30,10.0,ENE,3.5,-,N/A,,Overcast,70,2013-12-02 11:56:00
5:56 AM,32.0,30.0,92,30.29,10.0,Calm,Calm,-,N/A,,Overcast,0,2013-12-02 12:56:00
6:56 AM,32.0,30.0,92,30.30,10.0,South,3.5,-,N/A,,Overcast,170,2013-12-02 13:56:00
7:56 AM,33.1,30.0,89,30.28,9.0,East,6.9,-,N/A,,Overcast,100,2013-12-02 14:56:00
8:56 AM,32.0,28.9,88,30.28,10.0,South,8.1,-,N/A,,Overcast,170,2013-12-02 15:56:00
9:56 AM,33.1,30.0,89,30.28,10.0,ESE,5.8,-,N/A,,Overcast,120,2013-12-02 16:56:00
10:56 AM,34.0,30.0,85,30.25,10.0,East,5.8,-,N/A,,Overcast,100,2013-12-02 17:56:00
11:49 AM,36.0,30.0,79,30.20,10.0,Variable,4.6,-,N/A,,Overcast,0,2013-12-02 18:49:00
11:56 AM,37.0,30.9,79,30.21,10.0,Calm,Calm,-,N/A,,Overcast,0,2013-12-02 18:56:00
12:41 PM,39.0,32.0,76,30.17,10.0,East,6.9,-,N/A,,Scattered Clouds,90,2013-12-02 19:41:00
12:56 PM,39.9,32.0,73,30.16,10.0,SE,6.9,-,N/A,,Clear,130,2013-12-02 19:56:00
1:56 PM,43.0,33.1,68,30.09,10.0,SE,8.1,-,N/A,,Clear,130,2013-12-02 20:56:00
2:56 PM,46.0,34.0,63,30.05,10.0,ENE,4.6,-,N/A,,Clear,60,2013-12-02 21:56:00
3:56 PM,45.0,33.1,63,30.05,10.0,East,5.8,-,N/A,,Clear,100,2013-12-02 22:56:00
4:56 PM,43.0,34.0,71,30.02,10.0,East,5.8,-,N/A,,Clear,90,2013-12-02 23:56:00
5:56 PM,39.0,34.0,82,30.01,10.0,SE,6.9,-,N/A,,Clear,140,2013-12-03 00:56:00
6:56 PM,39.0,34.0,82,29.99,10.0,East,4.6,-,N/A,,Clear,100,2013-12-03 01:56:00
7:56 PM,37.0,33.1,86,29.99,10.0,SE,6.9,-,N/A,,Clear,140,2013-12-03 02:56:00
8:56 PM,35.1,32.0,89,29.98,10.0,ESE,6.9,-,N/A,,Clear,110,2013-12-03 03:56:00
9:56 PM,36.0,32.0,86,29.96,10.0,SE,5.8,-,N/A,,Clear,130,2013-12-03 04:56:00
10:56 PM,34.0,30.9,89,29.96,10.0,SE,5.8,-,N/A,,Clear,130,2013-12-03 05:56:00
11:56 PM,33.1,30.0,89,29.94,10.0,ESE,4.6,-,N/A,,Clear,120,2013-12-03 06:56:00